sensor_id;sensor_type;location;lat;lon;timestamp;P1;durP1;ratioP1;P2;durP2;ratioP2
12535;SDS011;6334;48.696;2.114;2023-06-22T00:00:09;3.87;;;3.50;;
12535;SDS011;6334;48.696;2.114;2023-06-22T00:02:43;4.17;;;3.60;;
12535;SDS011;6334;48.696;2.114;2023-06-22T00:05:14;3.97;;;3.67;;
12535;SDS011;6334;48.696;2.114;2023-06-22T00:07:45;5.57;;;3.30;;
12535;SDS011;6334;48.696;2.114;2023-06-22T00:10:15;3.67;;;3.37;;
12535;SDS011;6334;48.696;2.114;2023-06-22T00:12:47;3.32;;;3.07;;
12535;SDS011;6334;48.696;2.114;2023-06-22T00:15:16;3.57;;;3.27;;
12535;SDS011;6334;48.696;2.114;2023-06-22T00:17:47;3.70;;;3.40;;
12535;SDS011;6334;48.696;2.114;2023-06-22T00:20:17;3.57;;;3.27;;
12535;SDS011;6334;48.696;2.114;2023-06-22T00:25:22;3.50;;;3.20;;
12535;SDS011;6334;48.696;2.114;2023-06-22T00:27:52;3.80;;;3.33;;
12535;SDS011;6334;48.696;2.114;2023-06-22T00:30:23;4.50;;;3.73;;
12535;SDS011;6334;48.696;2.114;2023-06-22T00:35:28;4.10;;;3.70;;
12535;SDS011;6334;48.696;2.114;2023-06-22T00:37:59;3.60;;;3.30;;
12535;SDS011;6334;48.696;2.114;2023-06-22T00:40:30;3.60;;;3.33;;
12535;SDS011;6334;48.696;2.114;2023-06-22T00:45:34;3.60;;;3.33;;
12535;SDS011;6334;48.696;2.114;2023-06-22T00:48:05;4.20;;;3.70;;
12535;SDS011;6334;48.696;2.114;2023-06-22T00:50:35;4.00;;;3.50;;
12535;SDS011;6334;48.696;2.114;2023-06-22T00:53:06;4.60;;;3.50;;
12535;SDS011;6334;48.696;2.114;2023-06-22T00:55:37;4.30;;;3.60;;
12535;SDS011;6334;48.696;2.114;2023-06-22T00:58:07;6.13;;;3.40;;
12535;SDS011;6334;48.696;2.114;2023-06-22T01:00:38;4.07;;;3.77;;
12535;SDS011;6334;48.696;2.114;2023-06-22T01:03:08;3.70;;;3.40;;
12535;SDS011;6334;48.696;2.114;2023-06-22T01:05:39;3.80;;;3.50;;
12535;SDS011;6334;48.696;2.114;2023-06-22T01:08:29;4.13;;;3.70;;
12535;SDS011;6334;48.696;2.114;2023-06-22T01:11:22;4.47;;;3.70;;
12535;SDS011;6334;48.696;2.114;2023-06-22T01:13:54;6.97;;;3.60;;
12535;SDS011;6334;48.696;2.114;2023-06-22T01:16:23;5.00;;;3.70;;
12535;SDS011;6334;48.696;2.114;2023-06-22T01:18:54;3.43;;;3.13;;
12535;SDS011;6334;48.696;2.114;2023-06-22T01:21:24;4.10;;;3.70;;
12535;SDS011;6334;48.696;2.114;2023-06-22T01:26:35;5.90;;;3.60;;
12535;SDS011;6334;48.696;2.114;2023-06-22T01:29:01;3.93;;;3.63;;
12535;SDS011;6334;48.696;2.114;2023-06-22T01:31:32;4.00;;;3.60;;
12535;SDS011;6334;48.696;2.114;2023-06-22T01:34:03;5.37;;;3.90;;
12535;SDS011;6334;48.696;2.114;2023-06-22T01:36:32;3.63;;;3.23;;
12535;SDS011;6334;48.696;2.114;2023-06-22T01:39:02;4.57;;;3.87;;
12535;SDS011;6334;48.696;2.114;2023-06-22T01:41:35;5.63;;;3.60;;
12535;SDS011;6334;48.696;2.114;2023-06-22T01:44:05;4.03;;;3.43;;
12535;SDS011;6334;48.696;2.114;2023-06-22T01:46:35;4.10;;;3.70;;
12535;SDS011;6334;48.696;2.114;2023-06-22T01:49:05;5.50;;;3.93;;
12535;SDS011;6334;48.696;2.114;2023-06-22T01:51:35;4.07;;;3.60;;
12535;SDS011;6334;48.696;2.114;2023-06-22T01:54:06;5.43;;;3.50;;
12535;SDS011;6334;48.696;2.114;2023-06-22T01:56:36;4.67;;;3.50;;
12535;SDS011;6334;48.696;2.114;2023-06-22T01:59:25;4.47;;;3.50;;
12535;SDS011;6334;48.696;2.114;2023-06-22T02:01:54;3.90;;;3.23;;
12535;SDS011;6334;48.696;2.114;2023-06-22T02:06:56;4.40;;;3.33;;
12535;SDS011;6334;48.696;2.114;2023-06-22T02:09:26;4.17;;;3.77;;
12535;SDS011;6334;48.696;2.114;2023-06-22T02:11:56;3.93;;;3.50;;
12535;SDS011;6334;48.696;2.114;2023-06-22T02:14:26;8.73;;;3.80;;
12535;SDS011;6334;48.696;2.114;2023-06-22T02:16:56;4.23;;;3.80;;
12535;SDS011;6334;48.696;2.114;2023-06-22T02:19:27;3.87;;;3.53;;
12535;SDS011;6334;48.696;2.114;2023-06-22T02:21:57;4.33;;;3.60;;
12535;SDS011;6334;48.696;2.114;2023-06-22T02:24:28;4.00;;;3.60;;
12535;SDS011;6334;48.696;2.114;2023-06-22T02:26:58;4.17;;;3.47;;
12535;SDS011;6334;48.696;2.114;2023-06-22T02:29:28;4.43;;;4.00;;
12535;SDS011;6334;48.696;2.114;2023-06-22T02:31:58;4.03;;;3.60;;
12535;SDS011;6334;48.696;2.114;2023-06-22T02:37:03;5.77;;;3.73;;
12535;SDS011;6334;48.696;2.114;2023-06-22T02:39:33;4.87;;;3.90;;
12535;SDS011;6334;48.696;2.114;2023-06-22T02:42:04;4.73;;;3.37;;
12535;SDS011;6334;48.696;2.114;2023-06-22T02:47:08;4.07;;;3.67;;
12535;SDS011;6334;48.696;2.114;2023-06-22T02:49:39;5.17;;;3.90;;
12535;SDS011;6334;48.696;2.114;2023-06-22T02:52:09;5.53;;;3.90;;
12535;SDS011;6334;48.696;2.114;2023-06-22T02:57:13;4.90;;;3.83;;
12535;SDS011;6334;48.696;2.114;2023-06-22T02:59:44;4.10;;;3.70;;
12535;SDS011;6334;48.696;2.114;2023-06-22T03:02:14;4.03;;;3.30;;
12535;SDS011;6334;48.696;2.114;2023-06-22T03:04:45;4.43;;;3.93;;
12535;SDS011;6334;48.696;2.114;2023-06-22T03:07:15;5.10;;;3.80;;
12535;SDS011;6334;48.696;2.114;2023-06-22T03:09:46;4.27;;;3.80;;
12535;SDS011;6334;48.696;2.114;2023-06-22T03:12:16;5.27;;;3.87;;
12535;SDS011;6334;48.696;2.114;2023-06-22T03:14:47;6.37;;;3.70;;
12535;SDS011;6334;48.696;2.114;2023-06-22T03:17:17;4.17;;;3.40;;
12535;SDS011;6334;48.696;2.114;2023-06-22T03:19:47;4.27;;;3.77;;
12535;SDS011;6334;48.696;2.114;2023-06-22T03:22:19;4.47;;;3.70;;
12535;SDS011;6334;48.696;2.114;2023-06-22T03:24:49;4.13;;;3.53;;
12535;SDS011;6334;48.696;2.114;2023-06-22T03:27:20;4.80;;;4.00;;
12535;SDS011;6334;48.696;2.114;2023-06-22T03:29:50;5.77;;;3.80;;
12535;SDS011;6334;48.696;2.114;2023-06-22T03:32:20;4.40;;;4.00;;
12535;SDS011;6334;48.696;2.114;2023-06-22T03:34:52;4.57;;;3.90;;
12535;SDS011;6334;48.696;2.114;2023-06-22T03:37:22;5.43;;;3.60;;
12535;SDS011;6334;48.696;2.114;2023-06-22T03:39:53;4.17;;;3.77;;
12535;SDS011;6334;48.696;2.114;2023-06-22T03:42:23;4.47;;;3.80;;
12535;SDS011;6334;48.696;2.114;2023-06-22T03:44:53;4.00;;;3.60;;
12535;SDS011;6334;48.696;2.114;2023-06-22T03:47:24;4.13;;;3.73;;
12535;SDS011;6334;48.696;2.114;2023-06-22T03:49:54;7.47;;;3.60;;
12535;SDS011;6334;48.696;2.114;2023-06-22T03:54:58;5.47;;;4.03;;
12535;SDS011;6334;48.696;2.114;2023-06-22T03:57:29;6.30;;;3.90;;
12535;SDS011;6334;48.696;2.114;2023-06-22T03:59:59;5.43;;;3.80;;
12535;SDS011;6334;48.696;2.114;2023-06-22T04:05:04;3.63;;;3.33;;
12535;SDS011;6334;48.696;2.114;2023-06-22T04:07:34;4.00;;;3.60;;
12535;SDS011;6334;48.696;2.114;2023-06-22T04:10:05;4.90;;;4.00;;
12535;SDS011;6334;48.696;2.114;2023-06-22T04:15:10;6.73;;;4.20;;
12535;SDS011;6334;48.696;2.114;2023-06-22T04:17:40;5.20;;;3.80;;
12535;SDS011;6334;48.696;2.114;2023-06-22T04:20:11;3.83;;;3.43;;
12535;SDS011;6334;48.696;2.114;2023-06-22T04:25:16;4.33;;;3.90;;
12535;SDS011;6334;48.696;2.114;2023-06-22T04:27:46;4.17;;;3.77;;
12535;SDS011;6334;48.696;2.114;2023-06-22T04:30:16;5.70;;;4.00;;
12535;SDS011;6334;48.696;2.114;2023-06-22T04:32:49;4.23;;;3.83;;
12535;SDS011;6334;48.696;2.114;2023-06-22T04:35:25;5.03;;;4.07;;
12535;SDS011;6334;48.696;2.114;2023-06-22T04:37:57;9.20;;;4.30;;
12535;SDS011;6334;48.696;2.114;2023-06-22T04:40:26;4.90;;;3.83;;
12535;SDS011;6334;48.696;2.114;2023-06-22T04:45:30;8.73;;;4.20;;
12535;SDS011;6334;48.696;2.114;2023-06-22T04:48:01;7.37;;;4.00;;
12535;SDS011;6334;48.696;2.114;2023-06-22T04:50:34;4.70;;;3.90;;
12535;SDS011;6334;48.696;2.114;2023-06-22T04:55:39;7.70;;;4.20;;
12535;SDS011;6334;48.696;2.114;2023-06-22T04:58:09;6.17;;;4.13;;
12535;SDS011;6334;48.696;2.114;2023-06-22T05:00:40;4.50;;;4.10;;
12535;SDS011;6334;48.696;2.114;2023-06-22T05:03:10;6.17;;;4.27;;
12535;SDS011;6334;48.696;2.114;2023-06-22T05:05:41;4.40;;;4.00;;
12535;SDS011;6334;48.696;2.114;2023-06-22T05:08:11;5.00;;;4.03;;
12535;SDS011;6334;48.696;2.114;2023-06-22T05:10:42;6.57;;;4.10;;
12535;SDS011;6334;48.696;2.114;2023-06-22T05:13:12;6.80;;;4.27;;
12535;SDS011;6334;48.696;2.114;2023-06-22T05:15:43;6.03;;;4.53;;
12535;SDS011;6334;48.696;2.114;2023-06-22T05:18:13;6.57;;;4.07;;
12535;SDS011;6334;48.696;2.114;2023-06-22T05:20:44;6.37;;;4.77;;
12535;SDS011;6334;48.696;2.114;2023-06-22T05:23:14;5.70;;;4.37;;
12535;SDS011;6334;48.696;2.114;2023-06-22T05:25:44;6.20;;;4.20;;
12535;SDS011;6334;48.696;2.114;2023-06-22T05:28:14;7.40;;;4.60;;
12535;SDS011;6334;48.696;2.114;2023-06-22T05:30:45;7.47;;;4.43;;
12535;SDS011;6334;48.696;2.114;2023-06-22T05:33:16;6.57;;;4.45;;
12535;SDS011;6334;48.696;2.114;2023-06-22T05:35:47;8.93;;;4.40;;
12535;SDS011;6334;48.696;2.114;2023-06-22T05:38:17;6.43;;;4.50;;
12535;SDS011;6334;48.696;2.114;2023-06-22T05:40:48;13.60;;;5.17;;
12535;SDS011;6334;48.696;2.114;2023-06-22T05:43:18;9.30;;;4.50;;
12535;SDS011;6334;48.696;2.114;2023-06-22T05:45:49;6.93;;;5.03;;
12535;SDS011;6334;48.696;2.114;2023-06-22T05:48:19;10.07;;;4.73;;
12535;SDS011;6334;48.696;2.114;2023-06-22T05:50:50;6.27;;;4.43;;
12535;SDS011;6334;48.696;2.114;2023-06-22T05:53:19;7.10;;;4.60;;
12535;SDS011;6334;48.696;2.114;2023-06-22T05:55:49;9.93;;;5.20;;
12535;SDS011;6334;48.696;2.114;2023-06-22T05:58:18;8.37;;;4.53;;
12535;SDS011;6334;48.696;2.114;2023-06-22T06:00:48;8.17;;;4.77;;
12535;SDS011;6334;48.696;2.114;2023-06-22T06:03:18;9.33;;;4.77;;
12535;SDS011;6334;48.696;2.114;2023-06-22T06:05:49;9.17;;;4.93;;
12535;SDS011;6334;48.696;2.114;2023-06-22T06:08:19;8.73;;;5.00;;
12535;SDS011;6334;48.696;2.114;2023-06-22T06:10:49;7.37;;;4.47;;
12535;SDS011;6334;48.696;2.114;2023-06-22T06:13:18;7.90;;;5.33;;
12535;SDS011;6334;48.696;2.114;2023-06-22T06:15:49;7.03;;;4.93;;
12535;SDS011;6334;48.696;2.114;2023-06-22T06:18:19;9.60;;;5.30;;
12535;SDS011;6334;48.696;2.114;2023-06-22T06:20:50;5.90;;;4.97;;
12535;SDS011;6334;48.696;2.114;2023-06-22T06:23:19;8.87;;;5.33;;
12535;SDS011;6334;48.696;2.114;2023-06-22T06:25:49;8.30;;;5.10;;
12535;SDS011;6334;48.696;2.114;2023-06-22T06:28:19;8.33;;;5.27;;
12535;SDS011;6334;48.696;2.114;2023-06-22T06:30:49;7.90;;;5.27;;
12535;SDS011;6334;48.696;2.114;2023-06-22T06:33:19;8.37;;;5.47;;
12535;SDS011;6334;48.696;2.114;2023-06-22T06:35:50;9.80;;;5.93;;
12535;SDS011;6334;48.696;2.114;2023-06-22T06:38:20;8.30;;;5.40;;
12535;SDS011;6334;48.696;2.114;2023-06-22T06:40:51;9.20;;;5.97;;
12535;SDS011;6334;48.696;2.114;2023-06-22T06:43:21;9.60;;;5.63;;
12535;SDS011;6334;48.696;2.114;2023-06-22T06:45:52;9.97;;;5.63;;
12535;SDS011;6334;48.696;2.114;2023-06-22T06:48:22;7.33;;;5.17;;
12535;SDS011;6334;48.696;2.114;2023-06-22T06:50:52;9.37;;;6.07;;
12535;SDS011;6334;48.696;2.114;2023-06-22T06:53:22;10.07;;;5.73;;
12535;SDS011;6334;48.696;2.114;2023-06-22T06:55:52;10.47;;;6.90;;
12535;SDS011;6334;48.696;2.114;2023-06-22T06:58:21;9.07;;;6.27;;
12535;SDS011;6334;48.696;2.114;2023-06-22T07:00:52;9.77;;;6.10;;
12535;SDS011;6334;48.696;2.114;2023-06-22T07:03:22;10.00;;;6.63;;
12535;SDS011;6334;48.696;2.114;2023-06-22T07:05:53;10.23;;;5.93;;
12535;SDS011;6334;48.696;2.114;2023-06-22T07:08:22;12.10;;;6.80;;
12535;SDS011;6334;48.696;2.114;2023-06-22T07:10:52;8.80;;;5.93;;
12535;SDS011;6334;48.696;2.114;2023-06-22T07:13:22;9.30;;;6.00;;
12535;SDS011;6334;48.696;2.114;2023-06-22T07:15:53;11.20;;;6.13;;
12535;SDS011;6334;48.696;2.114;2023-06-22T07:18:23;10.03;;;6.20;;
12535;SDS011;6334;48.696;2.114;2023-06-22T07:20:54;10.03;;;6.53;;
12535;SDS011;6334;48.696;2.114;2023-06-22T07:23:24;11.80;;;6.90;;
12535;SDS011;6334;48.696;2.114;2023-06-22T07:25:55;11.17;;;6.63;;
12535;SDS011;6334;48.696;2.114;2023-06-22T07:28:25;10.27;;;6.53;;
12535;SDS011;6334;48.696;2.114;2023-06-22T07:30:56;13.00;;;7.10;;
12535;SDS011;6334;48.696;2.114;2023-06-22T07:33:26;11.13;;;7.43;;
12535;SDS011;6334;48.696;2.114;2023-06-22T07:35:59;11.03;;;6.60;;
12535;SDS011;6334;48.696;2.114;2023-06-22T07:38:29;11.93;;;7.20;;
12535;SDS011;6334;48.696;2.114;2023-06-22T07:41:00;10.07;;;6.90;;
12535;SDS011;6334;48.696;2.114;2023-06-22T07:43:29;11.57;;;7.33;;
12535;SDS011;6334;48.696;2.114;2023-06-22T07:46:00;12.30;;;7.40;;
12535;SDS011;6334;48.696;2.114;2023-06-22T07:48:29;16.07;;;7.13;;
12535;SDS011;6334;48.696;2.114;2023-06-22T07:51:00;10.90;;;7.07;;
12535;SDS011;6334;48.696;2.114;2023-06-22T07:53:30;11.27;;;7.00;;
12535;SDS011;6334;48.696;2.114;2023-06-22T07:56:00;10.90;;;6.83;;
12535;SDS011;6334;48.696;2.114;2023-06-22T07:58:30;10.40;;;7.53;;
12535;SDS011;6334;48.696;2.114;2023-06-22T08:01:01;15.97;;;7.53;;
12535;SDS011;6334;48.696;2.114;2023-06-22T08:03:31;11.33;;;7.47;;
12535;SDS011;6334;48.696;2.114;2023-06-22T08:06:01;12.70;;;7.27;;
12535;SDS011;6334;48.696;2.114;2023-06-22T08:08:32;11.67;;;7.60;;
12535;SDS011;6334;48.696;2.114;2023-06-22T08:11:02;11.60;;;7.00;;
12535;SDS011;6334;48.696;2.114;2023-06-22T08:13:33;12.20;;;7.40;;
12535;SDS011;6334;48.696;2.114;2023-06-22T08:16:03;10.60;;;7.23;;
12535;SDS011;6334;48.696;2.114;2023-06-22T08:18:34;14.03;;;7.00;;
12535;SDS011;6334;48.696;2.114;2023-06-22T08:21:04;10.83;;;7.33;;
12535;SDS011;6334;48.696;2.114;2023-06-22T08:23:35;12.90;;;8.23;;
12535;SDS011;6334;48.696;2.114;2023-06-22T08:26:04;12.13;;;8.30;;
12535;SDS011;6334;48.696;2.114;2023-06-22T08:28:35;13.57;;;9.10;;
12535;SDS011;6334;48.696;2.114;2023-06-22T08:31:05;12.27;;;8.57;;
12535;SDS011;6334;48.696;2.114;2023-06-22T08:33:35;13.50;;;8.83;;
12535;SDS011;6334;48.696;2.114;2023-06-22T08:36:05;15.10;;;9.23;;
12535;SDS011;6334;48.696;2.114;2023-06-22T08:38:36;14.90;;;9.07;;
12535;SDS011;6334;48.696;2.114;2023-06-22T08:41:06;12.00;;;8.37;;
12535;SDS011;6334;48.696;2.114;2023-06-22T08:43:37;15.07;;;9.07;;
12535;SDS011;6334;48.696;2.114;2023-06-22T08:46:07;14.37;;;9.93;;
12535;SDS011;6334;48.696;2.114;2023-06-22T08:48:38;16.03;;;10.30;;
12535;SDS011;6334;48.696;2.114;2023-06-22T08:51:08;14.83;;;10.27;;
12535;SDS011;6334;48.696;2.114;2023-06-22T08:53:38;15.00;;;9.20;;
12535;SDS011;6334;48.696;2.114;2023-06-22T08:56:09;14.17;;;9.97;;
12535;SDS011;6334;48.696;2.114;2023-06-22T08:58:39;22.57;;;10.33;;
12535;SDS011;6334;48.696;2.114;2023-06-22T09:01:10;15.53;;;10.20;;
12535;SDS011;6334;48.696;2.114;2023-06-22T09:03:41;14.53;;;9.57;;
12535;SDS011;6334;48.696;2.114;2023-06-22T09:06:11;13.70;;;9.27;;
12535;SDS011;6334;48.696;2.114;2023-06-22T09:08:41;13.60;;;9.13;;
12535;SDS011;6334;48.696;2.114;2023-06-22T09:11:12;16.37;;;10.10;;
12535;SDS011;6334;48.696;2.114;2023-06-22T09:13:42;15.20;;;9.03;;
12535;SDS011;6334;48.696;2.114;2023-06-22T09:16:13;14.53;;;9.33;;
12535;SDS011;6334;48.696;2.114;2023-06-22T09:18:46;14.57;;;9.93;;
12535;SDS011;6334;48.696;2.114;2023-06-22T09:21:13;14.63;;;9.47;;
12535;SDS011;6334;48.696;2.114;2023-06-22T09:23:43;15.83;;;9.63;;
12535;SDS011;6334;48.696;2.114;2023-06-22T09:26:14;14.23;;;9.80;;
12535;SDS011;6334;48.696;2.114;2023-06-22T09:28:44;15.80;;;9.57;;
12535;SDS011;6334;48.696;2.114;2023-06-22T09:31:14;15.83;;;9.13;;
12535;SDS011;6334;48.696;2.114;2023-06-22T09:33:45;16.70;;;9.60;;
12535;SDS011;6334;48.696;2.114;2023-06-22T09:36:15;14.80;;;9.43;;
12535;SDS011;6334;48.696;2.114;2023-06-22T09:38:46;15.33;;;9.00;;
12535;SDS011;6334;48.696;2.114;2023-06-22T09:41:16;13.03;;;9.27;;
12535;SDS011;6334;48.696;2.114;2023-06-22T09:43:47;15.13;;;10.13;;
12535;SDS011;6334;48.696;2.114;2023-06-22T09:46:19;14.87;;;10.17;;
12535;SDS011;6334;48.696;2.114;2023-06-22T09:48:50;17.07;;;9.90;;
12535;SDS011;6334;48.696;2.114;2023-06-22T09:51:20;13.63;;;9.43;;
12535;SDS011;6334;48.696;2.114;2023-06-22T09:53:51;14.43;;;8.77;;
12535;SDS011;6334;48.696;2.114;2023-06-22T09:56:21;12.37;;;8.67;;
12535;SDS011;6334;48.696;2.114;2023-06-22T09:58:52;13.07;;;8.80;;
12535;SDS011;6334;48.696;2.114;2023-06-22T10:01:22;12.97;;;8.73;;
12535;SDS011;6334;48.696;2.114;2023-06-22T10:03:52;13.23;;;9.00;;
12535;SDS011;6334;48.696;2.114;2023-06-22T10:06:23;12.30;;;8.60;;
12535;SDS011;6334;48.696;2.114;2023-06-22T10:08:53;13.50;;;9.20;;
12535;SDS011;6334;48.696;2.114;2023-06-22T10:11:24;13.77;;;8.93;;
12535;SDS011;6334;48.696;2.114;2023-06-22T10:13:54;10.97;;;7.73;;
12535;SDS011;6334;48.696;2.114;2023-06-22T10:16:30;12.63;;;8.70;;
12535;SDS011;6334;48.696;2.114;2023-06-22T10:18:54;11.50;;;8.13;;
12535;SDS011;6334;48.696;2.114;2023-06-22T10:21:25;13.43;;;8.53;;
12535;SDS011;6334;48.696;2.114;2023-06-22T10:23:54;11.60;;;8.67;;
12535;SDS011;6334;48.696;2.114;2023-06-22T10:26:25;12.23;;;7.93;;
12535;SDS011;6334;48.696;2.114;2023-06-22T10:28:55;12.17;;;8.50;;
12535;SDS011;6334;48.696;2.114;2023-06-22T10:31:25;11.87;;;7.67;;
12535;SDS011;6334;48.696;2.114;2023-06-22T10:33:55;12.53;;;8.03;;
12535;SDS011;6334;48.696;2.114;2023-06-22T10:36:26;11.87;;;7.73;;
12535;SDS011;6334;48.696;2.114;2023-06-22T10:38:56;13.50;;;8.00;;
12535;SDS011;6334;48.696;2.114;2023-06-22T10:41:27;11.20;;;8.13;;
12535;SDS011;6334;48.696;2.114;2023-06-22T10:43:57;11.10;;;7.40;;
12535;SDS011;6334;48.696;2.114;2023-06-22T10:46:27;10.20;;;7.47;;
12535;SDS011;6334;48.696;2.114;2023-06-22T10:48:57;10.87;;;7.60;;
12535;SDS011;6334;48.696;2.114;2023-06-22T10:51:28;15.97;;;8.13;;
12535;SDS011;6334;48.696;2.114;2023-06-22T10:53:58;10.80;;;7.50;;
12535;SDS011;6334;48.696;2.114;2023-06-22T10:56:28;11.53;;;7.90;;
12535;SDS011;6334;48.696;2.114;2023-06-22T10:58:57;11.67;;;8.00;;
12535;SDS011;6334;48.696;2.114;2023-06-22T11:01:28;12.80;;;7.83;;
12535;SDS011;6334;48.696;2.114;2023-06-22T11:03:58;10.47;;;7.77;;
12535;SDS011;6334;48.696;2.114;2023-06-22T11:06:29;11.17;;;7.37;;
12535;SDS011;6334;48.696;2.114;2023-06-22T11:08:59;12.50;;;8.00;;
12535;SDS011;6334;48.696;2.114;2023-06-22T11:11:30;12.33;;;7.33;;
12535;SDS011;6334;48.696;2.114;2023-06-22T11:14:00;10.33;;;7.00;;
12535;SDS011;6334;48.696;2.114;2023-06-22T11:16:30;13.20;;;7.10;;
12535;SDS011;6334;48.696;2.114;2023-06-22T11:19:00;10.33;;;7.07;;
12535;SDS011;6334;48.696;2.114;2023-06-22T11:21:29;12.63;;;7.50;;
12535;SDS011;6334;48.696;2.114;2023-06-22T11:24:00;9.67;;;6.90;;
12535;SDS011;6334;48.696;2.114;2023-06-22T11:26:31;10.27;;;7.50;;
12535;SDS011;6334;48.696;2.114;2023-06-22T11:29:00;10.37;;;7.57;;
12535;SDS011;6334;48.696;2.114;2023-06-22T11:31:31;12.27;;;7.97;;
12535;SDS011;6334;48.696;2.114;2023-06-22T11:34:01;12.73;;;7.60;;
12535;SDS011;6334;48.696;2.114;2023-06-22T11:36:32;9.43;;;6.90;;
12535;SDS011;6334;48.696;2.114;2023-06-22T11:39:02;13.33;;;8.03;;
12535;SDS011;6334;48.696;2.114;2023-06-22T11:41:32;13.53;;;7.97;;
12535;SDS011;6334;48.696;2.114;2023-06-22T11:44:02;10.13;;;7.03;;
12535;SDS011;6334;48.696;2.114;2023-06-22T11:46:32;9.80;;;6.60;;
12535;SDS011;6334;48.696;2.114;2023-06-22T11:49:01;9.97;;;6.73;;
12535;SDS011;6334;48.696;2.114;2023-06-22T11:51:32;9.33;;;6.87;;
12535;SDS011;6334;48.696;2.114;2023-06-22T11:54:02;11.33;;;7.20;;
12535;SDS011;6334;48.696;2.114;2023-06-22T11:56:32;10.90;;;6.50;;
12535;SDS011;6334;48.696;2.114;2023-06-22T11:59:01;10.23;;;6.23;;
12535;SDS011;6334;48.696;2.114;2023-06-22T12:01:32;7.23;;;5.33;;
12535;SDS011;6334;48.696;2.114;2023-06-22T12:04:01;10.27;;;5.70;;
12535;SDS011;6334;48.696;2.114;2023-06-22T12:06:31;8.20;;;5.63;;
12535;SDS011;6334;48.696;2.114;2023-06-22T12:09:01;8.50;;;5.30;;
12535;SDS011;6334;48.696;2.114;2023-06-22T12:11:30;9.63;;;5.33;;
12535;SDS011;6334;48.696;2.114;2023-06-22T12:14:00;11.73;;;6.23;;
12535;SDS011;6334;48.696;2.114;2023-06-22T12:16:30;9.00;;;5.30;;
12535;SDS011;6334;48.696;2.114;2023-06-22T12:19:00;9.93;;;6.50;;
12535;SDS011;6334;48.696;2.114;2023-06-22T12:21:30;8.93;;;5.73;;
12535;SDS011;6334;48.696;2.114;2023-06-22T12:24:00;8.67;;;5.47;;
12535;SDS011;6334;48.696;2.114;2023-06-22T12:26:30;8.07;;;5.43;;
12535;SDS011;6334;48.696;2.114;2023-06-22T12:29:00;9.13;;;5.47;;
12535;SDS011;6334;48.696;2.114;2023-06-22T12:31:31;7.73;;;5.37;;
12535;SDS011;6334;48.696;2.114;2023-06-22T12:34:01;10.00;;;5.33;;
12535;SDS011;6334;48.696;2.114;2023-06-22T12:36:31;8.13;;;5.37;;
12535;SDS011;6334;48.696;2.114;2023-06-22T12:39:00;8.43;;;5.40;;
12535;SDS011;6334;48.696;2.114;2023-06-22T12:41:31;5.67;;;4.63;;
12535;SDS011;6334;48.696;2.114;2023-06-22T12:44:00;9.30;;;4.83;;
12535;SDS011;6334;48.696;2.114;2023-06-22T12:46:31;6.77;;;5.17;;
12535;SDS011;6334;48.696;2.114;2023-06-22T12:49:00;9.40;;;5.33;;
12535;SDS011;6334;48.696;2.114;2023-06-22T12:51:31;8.97;;;5.37;;
12535;SDS011;6334;48.696;2.114;2023-06-22T12:54:01;7.27;;;5.00;;
12535;SDS011;6334;48.696;2.114;2023-06-22T12:56:30;9.63;;;5.00;;
12535;SDS011;6334;48.696;2.114;2023-06-22T12:59:00;7.57;;;5.27;;
12535;SDS011;6334;48.696;2.114;2023-06-22T13:01:30;7.83;;;5.33;;
12535;SDS011;6334;48.696;2.114;2023-06-22T13:03:59;7.73;;;5.73;;
12535;SDS011;6334;48.696;2.114;2023-06-22T13:06:29;8.87;;;5.83;;
12535;SDS011;6334;48.696;2.114;2023-06-22T13:08:58;9.77;;;5.83;;
12535;SDS011;6334;48.696;2.114;2023-06-22T13:11:28;8.80;;;5.53;;
12535;SDS011;6334;48.696;2.114;2023-06-22T13:13:57;7.10;;;5.70;;
12535;SDS011;6334;48.696;2.114;2023-06-22T13:16:27;9.77;;;5.93;;
12535;SDS011;6334;48.696;2.114;2023-06-22T13:18:56;5.80;;;5.00;;
12535;SDS011;6334;48.696;2.114;2023-06-22T13:21:27;7.63;;;5.63;;
12535;SDS011;6334;48.696;2.114;2023-06-22T13:23:57;7.80;;;5.60;;
12535;SDS011;6334;48.696;2.114;2023-06-22T13:26:27;10.50;;;5.67;;
12535;SDS011;6334;48.696;2.114;2023-06-22T13:28:57;9.23;;;5.73;;
12535;SDS011;6334;48.696;2.114;2023-06-22T13:31:27;8.63;;;6.17;;
12535;SDS011;6334;48.696;2.114;2023-06-22T13:33:57;9.07;;;5.90;;
12535;SDS011;6334;48.696;2.114;2023-06-22T13:36:26;6.07;;;4.73;;
12535;SDS011;6334;48.696;2.114;2023-06-22T13:38:56;8.70;;;5.70;;
12535;SDS011;6334;48.696;2.114;2023-06-22T13:41:25;8.60;;;6.00;;
12535;SDS011;6334;48.696;2.114;2023-06-22T13:43:55;9.00;;;6.10;;
12535;SDS011;6334;48.696;2.114;2023-06-22T13:46:25;8.53;;;6.00;;
12535;SDS011;6334;48.696;2.114;2023-06-22T13:48:54;7.27;;;5.50;;
12535;SDS011;6334;48.696;2.114;2023-06-22T13:51:24;6.53;;;5.37;;
12535;SDS011;6334;48.696;2.114;2023-06-22T13:53:53;7.33;;;4.77;;
12535;SDS011;6334;48.696;2.114;2023-06-22T13:56:23;10.07;;;5.27;;
12535;SDS011;6334;48.696;2.114;2023-06-22T13:58:53;10.47;;;4.93;;
12535;SDS011;6334;48.696;2.114;2023-06-22T14:01:24;7.90;;;5.27;;
12535;SDS011;6334;48.696;2.114;2023-06-22T14:03:53;5.97;;;5.07;;
12535;SDS011;6334;48.696;2.114;2023-06-22T14:06:24;6.80;;;5.50;;
12535;SDS011;6334;48.696;2.114;2023-06-22T14:08:54;7.70;;;5.40;;
12535;SDS011;6334;48.696;2.114;2023-06-22T14:11:24;7.73;;;5.20;;
12535;SDS011;6334;48.696;2.114;2023-06-22T14:13:54;6.83;;;5.40;;
12535;SDS011;6334;48.696;2.114;2023-06-22T14:16:23;7.23;;;5.10;;
12535;SDS011;6334;48.696;2.114;2023-06-22T14:18:53;6.77;;;5.10;;
12535;SDS011;6334;48.696;2.114;2023-06-22T14:21:24;7.17;;;5.43;;
12535;SDS011;6334;48.696;2.114;2023-06-22T14:23:53;5.33;;;4.53;;
12535;SDS011;6334;48.696;2.114;2023-06-22T14:26:23;7.37;;;5.27;;
12535;SDS011;6334;48.696;2.114;2023-06-22T14:28:53;5.87;;;4.80;;
12535;SDS011;6334;48.696;2.114;2023-06-22T14:31:24;5.17;;;4.33;;
12535;SDS011;6334;48.696;2.114;2023-06-22T14:33:53;6.67;;;4.90;;
12535;SDS011;6334;48.696;2.114;2023-06-22T14:36:23;5.57;;;4.40;;
12535;SDS011;6334;48.696;2.114;2023-06-22T14:38:53;5.73;;;4.77;;
12535;SDS011;6334;48.696;2.114;2023-06-22T14:41:23;6.53;;;4.57;;
12535;SDS011;6334;48.696;2.114;2023-06-22T14:43:53;10.73;;;4.77;;
12535;SDS011;6334;48.696;2.114;2023-06-22T14:46:23;5.63;;;4.70;;
12535;SDS011;6334;48.696;2.114;2023-06-22T14:48:53;7.73;;;4.80;;
12535;SDS011;6334;48.696;2.114;2023-06-22T14:51:23;6.53;;;4.33;;
12535;SDS011;6334;48.696;2.114;2023-06-22T14:53:53;5.77;;;4.10;;
12535;SDS011;6334;48.696;2.114;2023-06-22T14:56:22;5.63;;;4.60;;
12535;SDS011;6334;48.696;2.114;2023-06-22T14:58:54;5.37;;;4.80;;
12535;SDS011;6334;48.696;2.114;2023-06-22T15:01:24;4.67;;;4.23;;
12535;SDS011;6334;48.696;2.114;2023-06-22T15:03:54;4.83;;;4.33;;
12535;SDS011;6334;48.696;2.114;2023-06-22T15:06:24;4.50;;;4.10;;
12535;SDS011;6334;48.696;2.114;2023-06-22T15:08:54;5.80;;;4.60;;
12535;SDS011;6334;48.696;2.114;2023-06-22T15:11:23;7.10;;;4.80;;
12535;SDS011;6334;48.696;2.114;2023-06-22T15:13:53;7.13;;;4.50;;
12535;SDS011;6334;48.696;2.114;2023-06-22T15:16:22;7.13;;;4.57;;
12535;SDS011;6334;48.696;2.114;2023-06-22T15:18:52;5.77;;;4.70;;
12535;SDS011;6334;48.696;2.114;2023-06-22T15:21:22;10.07;;;4.90;;
12535;SDS011;6334;48.696;2.114;2023-06-22T15:23:51;6.20;;;4.50;;
12535;SDS011;6334;48.696;2.114;2023-06-22T15:26:21;7.50;;;4.27;;
12535;SDS011;6334;48.696;2.114;2023-06-22T15:28:53;5.03;;;4.53;;
12535;SDS011;6334;48.696;2.114;2023-06-22T15:31:23;6.03;;;4.37;;
12535;SDS011;6334;48.696;2.114;2023-06-22T15:33:53;8.00;;;4.90;;
12535;SDS011;6334;48.696;2.114;2023-06-22T15:36:23;7.27;;;4.50;;
12535;SDS011;6334;48.696;2.114;2023-06-22T15:38:53;5.67;;;4.60;;
12535;SDS011;6334;48.696;2.114;2023-06-22T15:41:24;4.80;;;4.40;;
12535;SDS011;6334;48.696;2.114;2023-06-22T15:43:54;6.37;;;4.40;;
12535;SDS011;6334;48.696;2.114;2023-06-22T15:46:24;5.13;;;4.30;;
12535;SDS011;6334;48.696;2.114;2023-06-22T15:48:54;4.50;;;4.10;;